createdAt,value
2015-10-10T00:00:01.020Z,-0.31
2015-10-10T00:00:13.380Z,-0.28
2015-10-10T00:00:25.755Z,-0.34
2015-10-10T00:00:38.132Z,-0.33
2015-10-10T00:00:50.491Z,-0.25
2015-10-10T00:01:02.851Z,-0.38
2015-10-10T00:01:15.210Z,-0.33
2015-10-10T00:01:27.601Z,-0.33
2015-10-10T00:01:39.260Z,-0.3
2015-10-10T00:01:51.619Z,-0.33
2015-10-10T00:02:03.994Z,-0.33
2015-10-10T00:02:16.369Z,-0.37
2015-10-10T00:02:28.731Z,-0.3
2015-10-10T00:02:41.090Z,-0.38
2015-10-10T00:02:53.465Z,-0.33
2015-10-10T00:03:05.699Z,-0.27
2015-10-10T00:03:18.059Z,-0.31
2015-10-10T00:03:30.438Z,-0.33
2015-10-10T00:03:42.813Z,-0.33
2015-10-10T00:03:55.188Z,-0.36
2015-10-10T00:04:07.563Z,-0.33
2015-10-10T00:04:19.922Z,-0.38
2015-10-10T00:04:32.299Z,-0.31
2015-10-10T00:04:44.658Z,-0.28
2015-10-10T00:04:57.018Z,-0.36
2015-10-10T00:05:09.393Z,-0.28
2015-10-10T00:05:21.783Z,-0.38
2015-10-10T00:05:34.146Z,-0.37
2015-10-10T00:05:46.521Z,-0.37
2015-10-10T00:05:58.880Z,-0.36
2015-10-10T00:06:11.255Z,-0.38
2015-10-10T00:06:23.630Z,-0.36
2015-10-10T00:06:35.993Z,-0.38
2015-10-10T00:06:48.383Z,-0.28
2015-10-10T00:07:00.758Z,-0.38
2015-10-10T00:07:13.118Z,-0.34
2015-10-10T00:07:25.493Z,-0.31
2015-10-10T00:07:37.870Z,-0.34
2015-10-10T00:07:50.260Z,-0.36
2015-10-10T00:08:02.635Z,-0.31
2015-10-10T00:08:14.995Z,-0.34
2015-10-10T00:08:27.370Z,-0.33
2015-10-10T00:08:39.763Z,-0.37
2015-10-10T00:08:51.419Z,-0.45
2015-10-10T00:09:03.779Z,-0.41
2015-10-10T00:09:16.138Z,-0.4
2015-10-10T00:09:28.529Z,-0.38
2015-10-10T00:09:40.890Z,-0.37
2015-10-10T00:09:53.265Z,-0.38
2015-10-10T00:10:05.640Z,-0.33
2015-10-10T00:10:18.015Z,-0.37
2015-10-10T00:10:30.379Z,-0.34
2015-10-10T00:10:42.738Z,-0.43
2015-10-10T00:10:55.113Z,-0.43
2015-10-10T00:11:07.488Z,-0.41
2015-10-10T00:11:19.691Z,-0.48
2015-10-10T00:11:31.912Z,-0.31
2015-10-10T00:11:44.287Z,-0.31
2015-10-10T00:11:56.662Z,-0.37
2015-10-10T00:12:09.021Z,-0.41
2015-10-10T00:12:21.381Z,-0.38
2015-10-10T00:12:33.758Z,-0.4
2015-10-10T00:12:46.164Z,-0.31
2015-10-10T00:12:58.523Z,-0.3
2015-10-10T00:13:10.898Z,-0.36
2015-10-10T00:13:23.273Z,-0.38
2015-10-10T00:13:35.636Z,-0.38
2015-10-10T00:13:47.307Z,-0.3
2015-10-10T00:13:59.667Z,-0.41
2015-10-10T00:14:12.042Z,-0.41
2015-10-10T00:14:24.432Z,-0.37
2015-10-10T00:14:36.795Z,-0.3
2015-10-10T00:14:49.154Z,-0.38
2015-10-10T00:15:01.545Z,-0.33
2015-10-10T00:15:13.904Z,-0.36
2015-10-10T00:15:26.264Z,-0.4
2015-10-10T00:15:38.626Z,-0.36
2015-10-10T00:15:51.032Z,-0.33
2015-10-10T00:16:03.407Z,-0.43
2015-10-10T00:16:15.767Z,-0.31
2015-10-10T00:16:28.126Z,-0.4
2015-10-10T00:16:40.503Z,-0.45
2015-10-10T00:16:52.878Z,-0.28
2015-10-10T00:17:05.237Z,-0.34
2015-10-10T00:17:17.612Z,-0.38
2015-10-10T00:17:29.987Z,-0.34
2015-10-10T00:17:42.350Z,-0.28
2015-10-10T00:17:54.709Z,-0.38
2015-10-10T00:18:07.084Z,-0.3
2015-10-10T00:18:19.459Z,-0.31
2015-10-10T00:18:31.821Z,-0.38
2015-10-10T00:18:44.181Z,-0.38
2015-10-10T00:18:56.556Z,-0.27
2015-10-10T00:19:08.931Z,-0.33
2015-10-10T00:19:21.290Z,-0.33
2015-10-10T00:19:33.668Z,-0.28
2015-10-10T00:19:46.043Z,-0.25
2015-10-10T00:19:58.434Z,-0.31
2015-10-10T00:20:10.778Z,-0.19
2015-10-10T00:20:22.434Z,-0.33
2015-10-10T00:20:34.811Z,-0.28
2015-10-10T00:20:47.170Z,-0.3
2015-10-10T00:20:59.545Z,-0.18
2015-10-10T00:21:11.920Z,-0.33
2015-10-10T00:21:24.295Z,-0.25
2015-10-10T00:21:36.673Z,-0.22
2015-10-10T00:21:49.048Z,-0.2
2015-10-10T00:22:01.408Z,-0.31
2015-10-10T00:22:13.783Z,-0.18
2015-10-10T00:22:26.158Z,-0.16
2015-10-10T00:22:38.550Z,-0.16
2015-10-10T00:22:50.910Z,-0.19
2015-10-10T00:23:03.300Z,-0.23
2015-10-10T00:23:15.660Z,-0.2
2015-10-10T00:23:28.035Z,-0.16
2015-10-10T00:23:40.397Z,-0.16
2015-10-10T00:23:52.084Z,-0.2
2015-10-10T00:24:04.459Z,-0.18
2015-10-10T00:24:16.803Z,-0.2
2015-10-10T00:24:29.178Z,-0.16
2015-10-10T00:24:41.556Z,-0.25
2015-10-10T00:24:53.931Z,-0.18
2015-10-10T00:25:06.291Z,-0.2
2015-10-10T00:25:18.666Z,-0.25
2015-10-10T00:25:31.041Z,-0.13
2015-10-10T00:25:43.403Z,-0.2
2015-10-10T00:25:55.762Z,-0.25
2015-10-10T00:26:08.153Z,-0.18
2015-10-10T00:26:20.512Z,-0.27
2015-10-10T00:26:32.874Z,-0.16
2015-10-10T00:26:45.249Z,-0.27
2015-10-10T00:26:57.624Z,-0.23
2015-10-10T00:27:10.014Z,-0.3
2015-10-10T00:27:22.374Z,-0.25
2015-10-10T00:27:34.752Z,-0.31
2015-10-10T00:27:46.408Z,-0.2
2015-10-10T00:27:58.767Z,-0.25
2015-10-10T00:28:11.127Z,-0.3
2015-10-10T00:28:23.470Z,-0.23
2015-10-10T00:28:35.677Z,-0.18
2015-10-10T00:28:48.036Z,-0.25
2015-10-10T00:29:00.411Z,-0.36
2015-10-10T00:29:12.770Z,-0.19
2015-10-10T00:29:25.161Z,-0.18
2015-10-10T00:29:37.522Z,-0.23
2015-10-10T00:29:49.882Z,-0.3
2015-10-10T00:30:02.241Z,-0.27
2015-10-10T00:30:14.491Z,-0.3
2015-10-10T00:30:26.850Z,-0.28
2015-10-10T00:30:39.213Z,-0.25
2015-10-10T00:30:51.588Z,-0.25
2015-10-10T00:31:03.963Z,-0.28
2015-10-10T00:31:16.322Z,-0.27
2015-10-10T00:31:28.682Z,-0.34
2015-10-10T00:31:41.075Z,-0.34
2015-10-10T00:31:53.450Z,-0.28
2015-10-10T00:32:05.810Z,-0.28
2015-10-10T00:32:18.185Z,-0.25
2015-10-10T00:32:30.560Z,-0.36
2015-10-10T00:32:42.922Z,-0.33
2015-10-10T00:32:55.297Z,-0.28
2015-10-10T00:33:07.656Z,-0.27
2015-10-10T00:33:20.031Z,-0.25
2015-10-10T00:33:32.250Z,-0.28
2015-10-10T00:33:44.611Z,-0.22
2015-10-10T00:33:56.986Z,-0.34
2015-10-10T00:34:09.377Z,-0.2
2015-10-10T00:34:21.736Z,-0.28
2015-10-10T00:34:34.099Z,-0.25
2015-10-10T00:34:46.458Z,-0.31
2015-10-10T00:34:58.849Z,-0.31
2015-10-10T00:35:11.208Z,-0.36
2015-10-10T00:35:23.568Z,-0.2
2015-10-10T00:35:35.929Z,-0.36
2015-10-10T00:35:48.304Z,-0.33
2015-10-10T00:36:00.679Z,-0.25
2015-10-10T00:36:13.054Z,-0.27
2015-10-10T00:36:25.429Z,-0.31
2015-10-10T00:36:37.089Z,-0.25
2015-10-10T00:36:49.464Z,-0.3
2015-10-10T00:37:01.824Z,-0.27
2015-10-10T00:37:13.480Z,-0.27
2015-10-10T00:37:25.855Z,-0.27
2015-10-10T00:37:38.216Z,-0.3
2015-10-10T00:37:50.576Z,-0.37
2015-10-10T00:38:02.232Z,-0.3
2015-10-10T00:38:14.607Z,-0.34
2015-10-10T00:38:26.982Z,-0.38
2015-10-10T00:38:39.188Z,-0.27
2015-10-10T00:38:51.563Z,-0.33
2015-10-10T00:39:03.938Z,-0.31
2015-10-10T00:39:16.297Z,-0.4
2015-10-10T00:39:28.657Z,-0.33
2015-10-10T00:39:41.018Z,-0.25
2015-10-10T00:39:53.409Z,-0.4
2015-10-10T00:40:05.752Z,-0.36
2015-10-10T00:40:18.127Z,-0.38
2015-10-10T00:40:30.487Z,-0.37
2015-10-10T00:40:42.865Z,-0.38
2015-10-10T00:40:55.224Z,-0.33
2015-10-10T00:41:07.584Z,-0.27
2015-10-10T00:41:19.959Z,-0.36
2015-10-10T00:41:32.334Z,-0.38
2015-10-10T00:41:44.696Z,-0.33
2015-10-10T00:41:57.071Z,-0.38
2015-10-10T00:42:09.446Z,-0.3
2015-10-10T00:42:21.805Z,-0.4
2015-10-10T00:42:34.165Z,-0.31
2015-10-10T00:42:46.543Z,-0.37
2015-10-10T00:42:58.902Z,-0.34
2015-10-10T00:43:11.277Z,-0.43
2015-10-10T00:43:23.621Z,-0.28
2015-10-10T00:43:35.998Z,-0.36
2015-10-10T00:43:48.388Z,-0.36
2015-10-10T00:44:00.763Z,-0.36
2015-10-10T00:44:13.123Z,-0.4
2015-10-10T00:44:25.498Z,-0.33
2015-10-10T00:44:37.860Z,-0.36
2015-10-10T00:44:49.532Z,-0.3
2015-10-10T00:45:01.923Z,-0.37
2015-10-10T00:45:14.282Z,-0.4
2015-10-10T00:45:26.657Z,-0.38
2015-10-10T00:45:39.018Z,-0.31
2015-10-10T00:45:51.378Z,-0.33
2015-10-10T00:46:03.753Z,-0.38
2015-10-10T00:46:16.128Z,-0.37
2015-10-10T00:46:28.503Z,-0.36
2015-10-10T00:46:40.866Z,-0.4
2015-10-10T00:46:53.241Z,-0.33
2015-10-10T00:47:05.601Z,-0.34
2015-10-10T00:47:17.960Z,-0.31
2015-10-10T00:47:29.632Z,-0.41
2015-10-10T00:47:41.290Z,-0.34
2015-10-10T00:47:53.665Z,-0.48
2015-10-10T00:48:06.040Z,-0.41
2015-10-10T00:48:18.415Z,-0.41
2015-10-10T00:48:30.790Z,-0.43
2015-10-10T00:48:43.137Z,-0.34
2015-10-10T00:48:55.512Z,-0.31
2015-10-10T00:49:07.887Z,-0.37
2015-10-10T00:49:20.246Z,-0.37
2015-10-10T00:49:32.606Z,-0.41
2015-10-10T00:49:44.984Z,-0.45
2015-10-10T00:49:57.359Z,-0.43
2015-10-10T00:50:09.718Z,-0.49
2015-10-10T00:50:22.077Z,-0.43
2015-10-10T00:50:34.468Z,-0.45
2015-10-10T00:50:46.829Z,-0.49
2015-10-10T00:50:59.189Z,-0.51
2015-10-10T00:51:11.564Z,-0.4
2015-10-10T00:51:23.923Z,-0.41
2015-10-10T00:51:36.282Z,-0.46
2015-10-10T00:51:48.660Z,-0.51
2015-10-10T00:52:01.020Z,-0.43
2015-10-10T00:52:13.410Z,-0.49
2015-10-10T00:52:25.770Z,-0.48
2015-10-10T00:52:38.129Z,-0.45
2015-10-10T00:52:49.787Z,-0.49
2015-10-10T00:53:02.178Z,-0.46
2015-10-10T00:53:14.537Z,-0.43
2015-10-10T00:53:26.897Z,-0.49
2015-10-10T00:53:39.272Z,-0.45
2015-10-10T00:53:51.650Z,-0.49
2015-10-10T00:54:03.853Z,-0.48
2015-10-10T00:54:16.212Z,-0.52
2015-10-10T00:54:28.572Z,-0.48
2015-10-10T00:54:40.962Z,-0.4
2015-10-10T00:54:53.325Z,-0.46
2015-10-10T00:55:05.684Z,-0.46
2015-10-10T00:55:18.059Z,-0.49
2015-10-10T00:55:30.450Z,-0.46
2015-10-10T00:55:42.812Z,-0.41
2015-10-10T00:55:55.171Z,-0.4
2015-10-10T00:56:07.390Z,-0.41
2015-10-10T00:56:19.781Z,-0.4
2015-10-10T00:56:32.156Z,-0.43
2015-10-10T00:56:44.517Z,-0.38
2015-10-10T00:56:56.908Z,-0.36
2015-10-10T00:57:08.564Z,-0.34
2015-10-10T00:57:20.923Z,-0.36
2015-10-10T00:57:33.283Z,-0.3
2015-10-10T00:57:45.661Z,-0.31
2015-10-10T00:57:58.036Z,-0.31
2015-10-10T00:58:10.395Z,-0.31
2015-10-10T00:58:22.770Z,-0.36
2015-10-10T00:58:35.145Z,-0.34
2015-10-10T00:58:47.523Z,-0.48
2015-10-10T00:58:59.883Z,-0.37
2015-10-10T00:59:12.258Z,-0.37
2015-10-10T00:59:24.648Z,-0.36
2015-10-10T00:59:36.992Z,-0.31
2015-10-10T00:59:49.370Z,-0.36
2015-10-10T01:00:01.729Z,-0.3
2015-10-10T01:00:14.120Z,-0.38
2015-10-10T01:00:26.479Z,-0.3
2015-10-10T01:00:38.839Z,-0.31
2015-10-10T01:00:51.200Z,-0.38
2015-10-10T01:01:03.591Z,-0.38
2015-10-10T01:01:15.966Z,-0.38
2015-10-10T01:01:28.325Z,-0.36
2015-10-10T01:01:40.684Z,-0.34
2015-10-10T01:01:53.062Z,-0.31
2015-10-10T01:02:05.437Z,-0.36
2015-10-10T01:02:17.797Z,-0.34
2015-10-10T01:02:30.172Z,-0.4
2015-10-10T01:02:42.531Z,-0.37
2015-10-10T01:02:54.909Z,-0.33
2015-10-10T01:03:07.269Z,-0.27
2015-10-10T01:03:19.644Z,-0.3
2015-10-10T01:03:32.019Z,-0.3
2015-10-10T01:03:44.378Z,-0.3
2015-10-10T01:03:56.740Z,-0.37
2015-10-10T01:04:09.115Z,-0.31
2015-10-10T01:04:21.475Z,-0.3
2015-10-10T01:04:33.850Z,-0.34
2015-10-10T01:04:46.209Z,-0.25
2015-10-10T01:04:58.586Z,-0.27
2015-10-10T01:05:10.945Z,-0.3
2015-10-10T01:05:23.305Z,-0.19
2015-10-10T01:05:35.664Z,-0.3
2015-10-10T01:05:47.899Z,-0.36
2015-10-10T01:06:00.245Z,-0.31
2015-10-10T01:06:12.605Z,-0.3
2015-10-10T01:06:24.964Z,-0.22
2015-10-10T01:06:37.323Z,-0.3
2015-10-10T01:06:49.686Z,-0.31
2015-10-10T01:07:02.045Z,-0.3
2015-10-10T01:07:14.420Z,-0.33
2015-10-10T01:07:26.811Z,-0.37
2015-10-10T01:07:39.170Z,-0.33
2015-10-10T01:07:51.547Z,-0.3
2015-10-10T01:08:03.922Z,-0.31
2015-10-10T01:08:16.282Z,-0.28
2015-10-10T01:08:28.657Z,-0.3
2015-10-10T01:08:40.860Z,-0.33
2015-10-10T01:08:53.222Z,-0.28
2015-10-10T01:09:05.613Z,-0.31
2015-10-10T01:09:17.988Z,-0.31
2015-10-10T01:09:30.347Z,-0.28
2015-10-10T01:09:42.722Z,-0.25
2015-10-10T01:09:55.100Z,-0.27
2015-10-10T01:10:07.459Z,-0.28
2015-10-10T01:10:19.819Z,-0.28
2015-10-10T01:10:32.194Z,-0.27
2015-10-10T01:10:44.569Z,-0.33
2015-10-10T01:10:56.947Z,-0.28
2015-10-10T01:11:09.291Z,-0.33
2015-10-10T01:11:21.509Z,-0.27
2015-10-10T01:11:33.884Z,-0.37
2015-10-10T01:11:46.244Z,-0.38
2015-10-10T01:11:58.621Z,-0.37
2015-10-10T01:12:11.011Z,-0.37
2015-10-10T01:12:23.371Z,-0.28
2015-10-10T01:12:35.730Z,-0.3
2015-10-10T01:12:48.105Z,-0.37
2015-10-10T01:13:00.483Z,-0.4
2015-10-10T01:13:12.842Z,-0.4
2015-10-10T01:13:25.202Z,-0.4
2015-10-10T01:13:37.577Z,-0.37
2015-10-10T01:13:49.952Z,-0.31
2015-10-10T01:14:02.313Z,-0.34
2015-10-10T01:14:14.673Z,-0.38
2015-10-10T01:14:27.094Z,-0.38
2015-10-10T01:14:39.469Z,-0.43
2015-10-10T01:14:51.844Z,-0.37
2015-10-10T01:15:04.208Z,-0.33
2015-10-10T01:15:16.583Z,-0.37
2015-10-10T01:15:28.239Z,-0.37
2015-10-10T01:15:40.598Z,-0.34
2015-10-10T01:15:52.958Z,-0.43
2015-10-10T01:16:05.335Z,-0.4
2015-10-10T01:16:17.710Z,-0.4
2015-10-10T01:16:30.069Z,-0.36
2015-10-10T01:16:42.429Z,-0.41
2015-10-10T01:16:54.791Z,-0.34
2015-10-10T01:17:07.182Z,-0.4
2015-10-10T01:17:19.557Z,-0.36
2015-10-10T01:17:31.916Z,-0.43
2015-10-10T01:17:44.275Z,-0.45
2015-10-10T01:17:56.653Z,-0.41
2015-10-10T01:18:09.013Z,-0.48
2015-10-10T01:18:21.372Z,-0.46
2015-10-10T01:18:33.747Z,-0.58
2015-10-10T01:18:46.122Z,-0.49
2015-10-10T01:18:58.483Z,-0.45
2015-10-10T01:19:10.843Z,-0.48
2015-10-10T01:19:23.233Z,-0.43
2015-10-10T01:19:35.608Z,-0.41
2015-10-10T01:19:47.968Z,-0.51
2015-10-10T01:20:00.346Z,-0.45
2015-10-10T01:20:12.705Z,-0.56
2015-10-10T01:20:25.065Z,-0.49
2015-10-10T01:20:37.455Z,-0.45
2015-10-10T01:20:49.846Z,-0.54
2015-10-10T01:21:02.208Z,-0.59
2015-10-10T01:21:14.568Z,-0.49
2015-10-10T01:21:26.943Z,-0.51
2015-10-10T01:21:39.302Z,-0.45
2015-10-10T01:21:51.646Z,-0.56
2015-10-10T01:22:04.023Z,-0.48
2015-10-10T01:22:15.679Z,-0.59
2015-10-10T01:22:28.054Z,-0.56
2015-10-10T01:22:40.429Z,-0.49
2015-10-10T01:22:52.804Z,-0.49
2015-10-10T01:23:05.166Z,-0.55
2015-10-10T01:23:17.526Z,-0.49
2015-10-10T01:23:29.885Z,-0.48
2015-10-10T01:23:42.244Z,-0.55
2015-10-10T01:23:54.619Z,-0.46
2015-10-10T01:24:06.997Z,-0.48
2015-10-10T01:24:19.388Z,-0.54
2015-10-10T01:24:31.763Z,-0.59
2015-10-10T01:24:44.169Z,-0.46
2015-10-10T01:24:55.826Z,-0.45
2015-10-10T01:25:08.188Z,-0.55
2015-10-10T01:25:20.563Z,-0.59
2015-10-10T01:25:32.907Z,-0.64
2015-10-10T01:25:45.282Z,-0.54
2015-10-10T01:25:57.659Z,-0.54
2015-10-10T01:26:10.049Z,-0.61
2015-10-10T01:26:22.299Z,-0.61
2015-10-10T01:26:34.643Z,-0.55
2015-10-10T01:26:47.018Z,-0.46
2015-10-10T01:26:59.365Z,-0.59
2015-10-10T01:27:11.740Z,-0.54
2015-10-10T01:27:24.099Z,-0.43
2015-10-10T01:27:36.474Z,-0.48
2015-10-10T01:27:48.865Z,-0.46
2015-10-10T01:28:01.273Z,-0.45
2015-10-10T01:28:13.664Z,-0.49
2015-10-10T01:28:25.304Z,-0.49
2015-10-10T01:28:37.679Z,-0.46
2015-10-10T01:28:50.039Z,-0.43
2015-10-10T01:29:02.401Z,-0.45
2015-10-10T01:29:14.760Z,-0.49
2015-10-10T01:29:27.135Z,-0.45
2015-10-10T01:29:39.526Z,-0.48
2015-10-10T01:29:51.917Z,-0.49
2015-10-10T01:30:04.295Z,-0.49
2015-10-10T01:30:16.638Z,-0.45
2015-10-10T01:30:28.998Z,-0.52
2015-10-10T01:30:41.357Z,-0.43
2015-10-10T01:30:53.748Z,-0.43
2015-10-10T01:31:06.109Z,-0.43
2015-10-10T01:31:18.484Z,-0.4
2015-10-10T01:31:30.859Z,-0.4
2015-10-10T01:31:43.234Z,-0.41
2015-10-10T01:31:55.594Z,-0.41
2015-10-10T01:32:07.972Z,-0.3
2015-10-10T01:32:20.331Z,-0.37
2015-10-10T01:32:31.987Z,-0.41
2015-10-10T01:32:44.378Z,-0.36
2015-10-10T01:32:56.753Z,-0.43
2015-10-10T01:33:09.162Z,-0.36
2015-10-10T01:33:21.506Z,-0.3
2015-10-10T01:33:33.881Z,-0.37
2015-10-10T01:33:46.240Z,-0.34
2015-10-10T01:33:58.600Z,-0.31
2015-10-10T01:34:10.992Z,-0.33
2015-10-10T01:34:23.367Z,-0.38
2015-10-10T01:34:35.727Z,-0.28
2015-10-10T01:34:48.117Z,-0.38
2015-10-10T01:35:00.523Z,-0.36
2015-10-10T01:35:12.886Z,-0.38
2015-10-10T01:35:25.230Z,-0.36
2015-10-10T01:35:37.605Z,-0.36
2015-10-10T01:35:49.964Z,-0.4
2015-10-10T01:36:02.326Z,-0.34
2015-10-10T01:36:14.701Z,-0.33
2015-10-10T01:36:27.092Z,-0.25
2015-10-10T01:36:39.483Z,-0.37
2015-10-10T01:36:51.873Z,-0.34
2015-10-10T01:37:04.236Z,-0.36
2015-10-10T01:37:16.595Z,-0.3
2015-10-10T01:37:28.970Z,-0.2
2015-10-10T01:37:41.329Z,-0.27
2015-10-10T01:37:53.704Z,-0.22
2015-10-10T01:38:06.066Z,-0.28
2015-10-10T01:38:18.456Z,-0.23
2015-10-10T01:38:30.847Z,-0.22
2015-10-10T01:38:43.238Z,-0.25
2015-10-10T01:38:55.644Z,-0.22
2015-10-10T01:39:08.006Z,-0.2
2015-10-10T01:39:20.366Z,-0.23
2015-10-10T01:39:32.584Z,-0.25
2015-10-10T01:39:44.944Z,-0.2
2015-10-10T01:39:57.303Z,-0.18
2015-10-10T01:40:09.681Z,-0.15
2015-10-10T01:40:22.056Z,-0.12
2015-10-10T01:40:34.431Z,-0.2
2015-10-10T01:40:46.822Z,-0.18
2015-10-10T01:40:59.212Z,-0.25
2015-10-10T01:41:11.558Z,-0.2
2015-10-10T01:41:23.933Z,-0.2
2015-10-10T01:41:36.292Z,-0.15
2015-10-10T01:41:48.636Z,-0.12
2015-10-10T01:42:01.011Z,-0.04
2015-10-10T01:42:13.374Z,-0.22
2015-10-10T01:42:25.764Z,-0.12
2015-10-10T01:42:38.139Z,-0.15
2015-10-10T01:42:50.545Z,-0.2
2015-10-10T01:43:02.905Z,-0.12
2015-10-10T01:43:15.267Z,-0.1
2015-10-10T01:43:27.627Z,-0.22
2015-10-10T01:43:39.986Z,-0.13
2015-10-10T01:43:52.330Z,-0.19
2015-10-10T01:44:04.705Z,-0.1
2015-10-10T01:44:17.083Z,-0.15
2015-10-10T01:44:29.458Z,-0.15
2015-10-10T01:44:41.864Z,-0.12
2015-10-10T01:44:54.208Z,-0.1
2015-10-10T01:45:06.551Z,-0.13
2015-10-10T01:45:18.929Z,-0.19
2015-10-10T01:45:31.273Z,-0.07
2015-10-10T01:45:43.617Z,-0.16
2015-10-10T01:45:55.992Z,-0.15
2015-10-10T01:46:08.367Z,-0.16
2015-10-10T01:46:20.760Z,-0.16
2015-10-10T01:46:33.150Z,-0.04
2015-10-10T01:46:45.556Z,-0.19
2015-10-10T01:46:57.931Z,-0.16
2015-10-10T01:47:10.294Z,-0.13
2015-10-10T01:47:22.669Z,-0.09
2015-10-10T01:47:35.044Z,-0.15
2015-10-10T01:47:47.403Z,-0.04
2015-10-10T01:47:59.778Z,-0.07
2015-10-10T01:48:12.156Z,-0.18
2015-10-10T01:48:24.547Z,-0.22
2015-10-10T01:48:36.937Z,-0.1
2015-10-10T01:48:49.297Z,-0.07
2015-10-10T01:49:01.672Z,-0.19
2015-10-10T01:49:14.034Z,-0.16
2015-10-10T01:49:26.440Z,-0.18
2015-10-10T01:49:38.800Z,-0.13
2015-10-10T01:49:51.159Z,-0.22
2015-10-10T01:50:03.534Z,-0.07
2015-10-10T01:50:15.928Z,-0.19
2015-10-10T01:50:28.318Z,-0.07
2015-10-10T01:50:40.725Z,-0.13
2015-10-10T01:50:53.084Z,-0.18
2015-10-10T01:51:05.443Z,-0.22
2015-10-10T01:51:17.820Z,-0.07
2015-10-10T01:51:30.164Z,-0.04
2015-10-10T01:51:42.539Z,-0.07
2015-10-10T01:51:54.883Z,-0.1
2015-10-10T01:52:07.305Z,-0.2
2015-10-10T01:52:19.730Z,-0.04
2015-10-10T01:52:32.199Z,-0.07
2015-10-10T01:52:44.574Z,-0.18
2015-10-10T01:52:56.965Z,-0.15
2015-10-10T01:53:09.293Z,-0.15
2015-10-10T01:53:21.279Z,-0.16
2015-10-10T01:53:33.483Z,-0.18
2015-10-10T01:53:45.467Z,-0.19
2015-10-10T01:53:58.112Z,-0.09
2015-10-10T01:54:12.002Z,-0.22
2015-10-10T01:54:25.599Z,-0.13
2015-10-10T01:54:38.115Z,-0.22
2015-10-10T01:54:50.490Z,-0.15
2015-10-10T01:55:02.865Z,-0.16
2015-10-10T01:55:15.321Z,-0.19
2015-10-10T01:55:27.680Z,-0.13
2015-10-10T01:55:40.071Z,-0.25
2015-10-10T01:55:52.461Z,-0.13
2015-10-10T01:56:04.946Z,-0.2
2015-10-10T01:56:17.427Z,-0.2
2015-10-10T01:56:29.849Z,-0.16
2015-10-10T01:56:42.208Z,-0.15
2015-10-10T01:56:54.568Z,-0.13
2015-10-10T01:57:06.927Z,-0.09
2015-10-10T01:57:19.290Z,-0.19
2015-10-10T01:57:31.508Z,-0.09
2015-10-10T01:57:43.868Z,-0.2
2015-10-10T01:57:56.243Z,-0.13
2015-10-10T01:58:08.618Z,-0.04
2015-10-10T01:58:21.027Z,-0.16
2015-10-10T01:58:33.386Z,-0.16
2015-10-10T01:58:45.589Z,-0.07
2015-10-10T01:58:57.949Z,-0.13
2015-10-10T01:59:10.308Z,-0.12
2015-10-10T01:59:22.685Z,-0.07
2015-10-10T01:59:35.060Z,-0.12
2015-10-10T01:59:47.451Z,-0.1
2015-10-10T01:59:59.857Z,-0.16
2015-10-10T02:00:12.201Z,-0.04
2015-10-10T02:00:24.579Z,-0.04
2015-10-10T02:00:36.969Z,-0.07
2015-10-10T02:00:49.329Z,-0.04
2015-10-10T02:01:01.704Z,-0.12
2015-10-10T02:01:14.079Z,-0.12
2015-10-10T02:01:26.472Z,-0.09
2015-10-10T02:01:38.691Z,-0.09
2015-10-10T02:01:51.097Z,-0.13
2015-10-10T02:02:03.457Z,-0.12
2015-10-10T02:02:15.129Z,-0.13
2015-10-10T02:02:26.787Z,-0.15
2015-10-10T02:02:39.162Z,-0.12
2015-10-10T02:02:51.521Z,-0.09
2015-10-10T02:03:03.912Z,-0.04
2015-10-10T02:03:16.291Z,-0.09
2015-10-10T02:03:28.666Z,-0.1
2015-10-10T02:03:40.338Z,-0.09
2015-10-10T02:03:52.775Z,-0.04
2015-10-10T02:04:05.135Z,-0.04
2015-10-10T02:04:17.496Z,-0.01
2015-10-10T02:04:29.871Z,-0.02
2015-10-10T02:04:42.230Z,-0.05
2015-10-10T02:04:54.574Z,-0.12
2015-10-10T02:05:06.949Z,-0.01
2015-10-10T02:05:19.326Z,-0.01
2015-10-10T02:05:31.717Z,-0.1
2015-10-10T02:05:44.123Z,-0.1
2015-10-10T02:05:56.514Z,-0.04
2015-10-10T02:06:08.889Z,-0.09
2015-10-10T02:06:21.236Z,-0.01
2015-10-10T02:06:33.611Z,-0.02
2015-10-10T02:06:45.815Z,-0.1
2015-10-10T02:06:58.190Z,-0.05
2015-10-10T02:07:10.580Z,-0.04
2015-10-10T02:07:22.974Z,0.02
2015-10-10T02:07:35.349Z,-0.1
2015-10-10T02:07:47.708Z,-0.1
2015-10-10T02:07:59.911Z,-0.12
2015-10-10T02:08:12.271Z,-0.05
2015-10-10T02:08:24.632Z,0.01
2015-10-10T02:08:37.007Z,-0.01
2015-10-10T02:08:49.366Z,-0.02
2015-10-10T02:09:01.741Z,-0.12
2015-10-10T02:09:14.132Z,-0.1
2015-10-10T02:09:26.509Z,-0.16
2015-10-10T02:09:38.884Z,-0.07
2015-10-10T02:09:51.243Z,-0.09
2015-10-10T02:10:03.603Z,-0.02
2015-10-10T02:10:15.962Z,-0.1
2015-10-10T02:10:28.325Z,-0.07
2015-10-10T02:10:40.700Z,-0.04
2015-10-10T02:10:53.090Z,-0.07
2015-10-10T02:11:05.481Z,-0.1
2015-10-10T02:11:17.903Z,-0.01
2015-10-10T02:11:30.264Z,-0.07
2015-10-10T02:11:42.608Z,-0.1
2015-10-10T02:11:54.264Z,-0.12
2015-10-10T02:12:06.623Z,-0.05
2015-10-10T02:12:19.002Z,-0.09
2015-10-10T02:12:31.362Z,-0.1
2015-10-10T02:12:43.737Z,-0.05
2015-10-10T02:12:56.112Z,-0.12
2015-10-10T02:13:08.518Z,-0.05
2015-10-10T02:13:20.926Z,-0.05
2015-10-10T02:13:33.286Z,-0.07
2015-10-10T02:13:45.661Z,-0.09
2015-10-10T02:13:58.004Z,-0.12
2015-10-10T02:14:10.364Z,-0.15
2015-10-10T02:14:22.742Z,-0.07
2015-10-10T02:14:35.132Z,-0.05
2015-10-10T02:14:47.523Z,-0.05
2015-10-10T02:14:59.914Z,-0.12
2015-10-10T02:15:12.273Z,-0.13
2015-10-10T02:15:24.682Z,-0.1
2015-10-10T02:15:37.026Z,-0.1
2015-10-10T02:15:49.385Z,-0.13
2015-10-10T02:16:01.760Z,-0.07
2015-10-10T02:16:14.120Z,-0.15
2015-10-10T02:16:26.497Z,-0.2
2015-10-10T02:16:38.887Z,-0.18
2015-10-10T02:16:51.278Z,-0.19
2015-10-10T02:17:03.684Z,-0.12
2015-10-10T02:17:16.044Z,-0.04
2015-10-10T02:17:28.406Z,-0.1
2015-10-10T02:17:40.062Z,-0.12
2015-10-10T02:17:52.422Z,-0.15
2015-10-10T02:18:04.781Z,-0.2
2015-10-10T02:18:17.140Z,-0.18
2015-10-10T02:18:29.534Z,-0.25
2015-10-10T02:18:41.925Z,-0.13
2015-10-10T02:18:54.143Z,-0.04
2015-10-10T02:19:06.503Z,-0.16
2015-10-10T02:19:18.862Z,-0.12
2015-10-10T02:19:31.239Z,-0.22
2015-10-10T02:19:43.599Z,-0.15
2015-10-10T02:19:55.958Z,-0.12
2015-10-10T02:20:08.333Z,-0.19
2015-10-10T02:20:20.708Z,-0.16
2015-10-10T02:20:33.102Z,-0.16
2015-10-10T02:20:45.461Z,-0.07
2015-10-10T02:20:57.820Z,-0.1
2015-10-10T02:21:10.195Z,-0.2
2015-10-10T02:21:22.558Z,-0.2
2015-10-10T02:21:34.917Z,-0.2
2015-10-10T02:21:47.276Z,-0.18
2015-10-10T02:21:59.667Z,-0.09
2015-10-10T02:22:12.042Z,-0.13
2015-10-10T02:22:24.295Z,-0.2
2015-10-10T02:22:36.654Z,-0.22
2015-10-10T02:22:49.014Z,-0.22
2015-10-10T02:23:01.373Z,-0.2
2015-10-10T02:23:13.733Z,-0.2
2015-10-10T02:23:26.078Z,-0.23
2015-10-10T02:23:38.438Z,-0.2
2015-10-10T02:23:50.797Z,-0.19
2015-10-10T02:24:03.156Z,-0.16
2015-10-10T02:24:15.516Z,-0.22
2015-10-10T02:24:27.878Z,-0.25
2015-10-10T02:24:40.238Z,-0.09
2015-10-10T02:24:52.597Z,-0.15
2015-10-10T02:25:04.956Z,-0.1
2015-10-10T02:25:17.331Z,-0.19
2015-10-10T02:25:29.694Z,-0.18
2015-10-10T02:25:42.069Z,-0.25
2015-10-10T02:25:53.756Z,-0.15
2015-10-10T02:26:05.412Z,-0.15
2015-10-10T02:26:17.866Z,-0.22
2015-10-10T02:26:30.227Z,-0.22
2015-10-10T02:26:42.618Z,-0.23
2015-10-10T02:26:54.977Z,-0.15
2015-10-10T02:27:07.336Z,-0.15
2015-10-10T02:27:19.711Z,-0.16
2015-10-10T02:27:32.105Z,-0.1
2015-10-10T02:27:44.527Z,-0.13
2015-10-10T02:27:56.917Z,-0.13
2015-10-10T02:28:09.292Z,-0.22
2015-10-10T02:28:21.652Z,-0.09
2015-10-10T02:28:34.030Z,-0.15
2015-10-10T02:28:46.389Z,-0.09
2015-10-10T02:28:58.764Z,-0.22
2015-10-10T02:29:11.139Z,-0.09
2015-10-10T02:29:23.514Z,-0.13
2015-10-10T02:29:35.908Z,-0.13
2015-10-10T02:29:48.283Z,-0.12
2015-10-10T02:30:00.642Z,-0.2
2015-10-10T02:30:13.002Z,-0.12
2015-10-10T02:30:25.379Z,-0.13
2015-10-10T02:30:37.738Z,-0.13
2015-10-10T02:30:50.097Z,-0.16
2015-10-10T02:31:02.457Z,-0.07
2015-10-10T02:31:14.832Z,-0.12
2015-10-10T02:31:27.241Z,-0.18
2015-10-10T02:31:39.632Z,-0.15
2015-10-10T02:31:52.022Z,-0.09
2015-10-10T02:32:04.382Z,-0.07
2015-10-10T02:32:16.757Z,-0.1
2015-10-10T02:32:29.119Z,-0.1
2015-10-10T02:32:41.494Z,-0.04
2015-10-10T02:32:53.853Z,-0.05
2015-10-10T02:33:06.213Z,-0.09
2015-10-10T02:33:18.588Z,-0.13
2015-10-10T02:33:30.980Z,-0.05
2015-10-10T02:33:43.387Z,-0.16
2015-10-10T02:33:55.753Z,-0.09
2015-10-10T02:34:08.112Z,-0.07
2015-10-10T02:34:20.471Z,-0.1
2015-10-10T02:34:32.849Z,-0.02
2015-10-10T02:34:45.224Z,-0.09
2015-10-10T02:34:57.599Z,-0.1
2015-10-10T02:35:09.959Z,-0.09
2015-10-10T02:35:22.349Z,-0.1
2015-10-10T02:35:34.602Z,-0.1
2015-10-10T02:35:46.962Z,-0.1
2015-10-10T02:35:59.321Z,-0.1
2015-10-10T02:36:11.681Z,-0.04
2015-10-10T02:36:24.040Z,-0.1
2015-10-10T02:36:36.246Z,-0.04
2015-10-10T02:36:48.621Z,-0.1
2015-10-10T02:37:00.980Z,-0.12
2015-10-10T02:37:13.215Z,-0.09
2015-10-10T02:37:25.590Z,-0.04
2015-10-10T02:37:37.951Z,-0.1
2015-10-10T02:37:49.607Z,-0.09
2015-10-10T02:38:01.967Z,-0.07
2015-10-10T02:38:14.342Z,-0.1
2015-10-10T02:38:26.701Z,-0.01
2015-10-10T02:38:39.095Z,-0.07
2015-10-10T02:38:51.454Z,-0.07
2015-10-10T02:39:03.814Z,-0.1
2015-10-10T02:39:16.189Z,-0.07
2015-10-10T02:39:28.534Z,-0.01
2015-10-10T02:39:40.894Z,-0.07